sensor_id;sensor_type;location;lat;lon;timestamp;P1;durP1;ratioP1;P2;durP2;ratioP2
43803;SDS011;29430;52.924;-2.388;2023-06-19T00:00:43;10.65;;;9.60;;
43803;SDS011;29430;52.924;-2.388;2023-06-19T00:05:34;9.23;;;7.97;;
43803;SDS011;29430;52.924;-2.388;2023-06-19T00:10:26;9.88;;;8.52;;
43803;SDS011;29430;52.924;-2.388;2023-06-19T00:15:18;11.73;;;9.65;;
43803;SDS011;29430;52.924;-2.388;2023-06-19T00:20:09;11.20;;;9.60;;
43803;SDS011;29430;52.924;-2.388;2023-06-19T00:25:01;11.43;;;9.75;;
43803;SDS011;29430;52.924;-2.388;2023-06-19T00:29:53;11.77;;;10.57;;
43803;SDS011;29430;52.924;-2.388;2023-06-19T00:34:45;11.20;;;10.05;;
43803;SDS011;29430;52.924;-2.388;2023-06-19T00:39:36;11.25;;;10.02;;
43803;SDS011;29430;52.924;-2.388;2023-06-19T00:44:28;11.07;;;8.68;;
43803;SDS011;29430;52.924;-2.388;2023-06-19T00:49:20;10.80;;;9.70;;
43803;SDS011;29430;52.924;-2.388;2023-06-19T00:54:12;11.18;;;9.75;;
43803;SDS011;29430;52.924;-2.388;2023-06-19T00:59:06;13.32;;;10.57;;
43803;SDS011;29430;52.924;-2.388;2023-06-19T01:04:03;12.85;;;11.45;;
43803;SDS011;29430;52.924;-2.388;2023-06-19T01:13:58;14.15;;;11.93;;
43803;SDS011;29430;52.924;-2.388;2023-06-19T01:18:53;12.75;;;11.23;;
43803;SDS011;29430;52.924;-2.388;2023-06-19T01:23:46;13.50;;;11.93;;
43803;SDS011;29430;52.924;-2.388;2023-06-19T01:28:41;13.60;;;11.77;;
43803;SDS011;29430;52.924;-2.388;2023-06-19T01:33:35;15.10;;;11.00;;
43803;SDS011;29430;52.924;-2.388;2023-06-19T01:38:29;17.83;;;11.80;;
43803;SDS011;29430;52.924;-2.388;2023-06-19T01:43:22;17.90;;;11.60;;
43803;SDS011;29430;52.924;-2.388;2023-06-19T01:48:15;13.65;;;12.25;;
43803;SDS011;29430;52.924;-2.388;2023-06-19T01:53:07;11.95;;;10.65;;
43803;SDS011;29430;52.924;-2.388;2023-06-19T01:57:59;12.88;;;10.98;;
43803;SDS011;29430;52.924;-2.388;2023-06-19T02:02:51;30.50;;;10.15;;
43803;SDS011;29430;52.924;-2.388;2023-06-19T02:07:42;14.32;;;10.57;;
43803;SDS011;29430;52.924;-2.388;2023-06-19T02:12:34;12.10;;;10.82;;
43803;SDS011;29430;52.924;-2.388;2023-06-19T02:17:26;10.15;;;8.77;;
43803;SDS011;29430;52.924;-2.388;2023-06-19T02:22:18;12.88;;;9.60;;
43803;SDS011;29430;52.924;-2.388;2023-06-19T02:27:10;11.18;;;8.85;;
43803;SDS011;29430;52.924;-2.388;2023-06-19T02:32:01;12.88;;;9.90;;
43803;SDS011;29430;52.924;-2.388;2023-06-19T02:36:54;13.32;;;9.68;;
43803;SDS011;29430;52.924;-2.388;2023-06-19T02:41:45;8.40;;;7.47;;
43803;SDS011;29430;52.924;-2.388;2023-06-19T02:46:38;9.73;;;8.05;;
43803;SDS011;29430;52.924;-2.388;2023-06-19T02:51:29;8.25;;;7.10;;
43803;SDS011;29430;52.924;-2.388;2023-06-19T02:56:21;9.82;;;7.65;;
43803;SDS011;29430;52.924;-2.388;2023-06-19T03:01:13;10.60;;;7.43;;
43803;SDS011;29430;52.924;-2.388;2023-06-19T03:06:05;10.60;;;8.23;;
43803;SDS011;29430;52.924;-2.388;2023-06-19T03:10:58;10.68;;;7.60;;
43803;SDS011;29430;52.924;-2.388;2023-06-19T03:15:49;8.20;;;6.90;;
43803;SDS011;29430;52.924;-2.388;2023-06-19T03:20:41;9.40;;;8.38;;
43803;SDS011;29430;52.924;-2.388;2023-06-19T03:25:33;11.80;;;7.88;;
43803;SDS011;29430;52.924;-2.388;2023-06-19T03:30:26;8.23;;;6.93;;
43803;SDS011;29430;52.924;-2.388;2023-06-19T03:35:18;10.18;;;7.88;;
43803;SDS011;29430;52.924;-2.388;2023-06-19T03:40:10;9.35;;;8.35;;
43803;SDS011;29430;52.924;-2.388;2023-06-19T03:45:05;12.15;;;8.77;;
43803;SDS011;29430;52.924;-2.388;2023-06-19T03:49:57;11.68;;;8.75;;
43803;SDS011;29430;52.924;-2.388;2023-06-19T03:55:05;14.57;;;8.68;;
43803;SDS011;29430;52.924;-2.388;2023-06-19T03:59:57;9.98;;;8.15;;
43803;SDS011;29430;52.924;-2.388;2023-06-19T04:04:49;11.95;;;7.65;;
43803;SDS011;29430;52.924;-2.388;2023-06-19T04:09:40;14.23;;;8.30;;
43803;SDS011;29430;52.924;-2.388;2023-06-19T04:14:32;15.77;;;8.02;;
43803;SDS011;29430;52.924;-2.388;2023-06-19T04:19:24;13.52;;;7.60;;
43803;SDS011;29430;52.924;-2.388;2023-06-19T04:24:15;10.52;;;8.15;;
43803;SDS011;29430;52.924;-2.388;2023-06-19T04:29:07;11.40;;;8.18;;
43803;SDS011;29430;52.924;-2.388;2023-06-19T04:33:59;13.45;;;7.72;;
43803;SDS011;29430;52.924;-2.388;2023-06-19T04:38:51;9.75;;;7.60;;
43803;SDS011;29430;52.924;-2.388;2023-06-19T04:43:43;12.77;;;7.68;;
43803;SDS011;29430;52.924;-2.388;2023-06-19T04:48:35;9.60;;;7.07;;
43803;SDS011;29430;52.924;-2.388;2023-06-19T04:53:28;10.18;;;6.15;;
43803;SDS011;29430;52.924;-2.388;2023-06-19T04:58:19;10.95;;;7.07;;
43803;SDS011;29430;52.924;-2.388;2023-06-19T05:03:12;7.18;;;5.03;;
43803;SDS011;29430;52.924;-2.388;2023-06-19T05:08:05;10.40;;;5.88;;
43803;SDS011;29430;52.924;-2.388;2023-06-19T05:12:56;10.32;;;6.05;;
43803;SDS011;29430;52.924;-2.388;2023-06-19T05:17:48;7.80;;;5.03;;
43803;SDS011;29430;52.924;-2.388;2023-06-19T05:22:40;7.53;;;5.43;;
43803;SDS011;29430;52.924;-2.388;2023-06-19T05:27:31;7.88;;;4.88;;
43803;SDS011;29430;52.924;-2.388;2023-06-19T05:32:23;9.50;;;4.35;;
43803;SDS011;29430;52.924;-2.388;2023-06-19T05:37:15;7.00;;;4.43;;
43803;SDS011;29430;52.924;-2.388;2023-06-19T05:42:07;9.65;;;4.50;;
43803;SDS011;29430;52.924;-2.388;2023-06-19T05:46:59;10.25;;;4.57;;
43803;SDS011;29430;52.924;-2.388;2023-06-19T05:51:51;7.93;;;4.47;;
43803;SDS011;29430;52.924;-2.388;2023-06-19T05:56:43;8.75;;;3.97;;
43803;SDS011;29430;52.924;-2.388;2023-06-19T06:01:34;7.22;;;3.30;;
43803;SDS011;29430;52.924;-2.388;2023-06-19T06:06:26;7.65;;;4.70;;
43803;SDS011;29430;52.924;-2.388;2023-06-19T06:11:18;7.85;;;4.55;;
43803;SDS011;29430;52.924;-2.388;2023-06-19T06:16:10;7.72;;;3.95;;
43803;SDS011;29430;52.924;-2.388;2023-06-19T06:21:01;6.95;;;3.83;;
43803;SDS011;29430;52.924;-2.388;2023-06-19T06:25:53;8.88;;;3.83;;
43803;SDS011;29430;52.924;-2.388;2023-06-19T06:30:48;10.20;;;4.32;;
43803;SDS011;29430;52.924;-2.388;2023-06-19T06:35:39;7.95;;;4.65;;
43803;SDS011;29430;52.924;-2.388;2023-06-19T06:40:31;7.40;;;4.18;;
43803;SDS011;29430;52.924;-2.388;2023-06-19T06:45:23;8.73;;;4.25;;
43803;SDS011;29430;52.924;-2.388;2023-06-19T06:50:18;6.07;;;4.00;;
43803;SDS011;29430;52.924;-2.388;2023-06-19T06:55:09;7.25;;;3.38;;
43803;SDS011;29430;52.924;-2.388;2023-06-19T07:00:02;9.43;;;3.28;;
43803;SDS011;29430;52.924;-2.388;2023-06-19T07:04:55;6.32;;;3.28;;
43803;SDS011;29430;52.924;-2.388;2023-06-19T07:09:47;6.57;;;3.40;;
43803;SDS011;29430;52.924;-2.388;2023-06-19T07:14:38;6.57;;;3.47;;
43803;SDS011;29430;52.924;-2.388;2023-06-19T07:19:30;7.55;;;3.60;;
43803;SDS011;29430;52.924;-2.388;2023-06-19T07:24:22;7.88;;;3.20;;
43803;SDS011;29430;52.924;-2.388;2023-06-19T07:29:15;7.55;;;2.88;;
43803;SDS011;29430;52.924;-2.388;2023-06-19T07:34:06;4.55;;;3.08;;
43803;SDS011;29430;52.924;-2.388;2023-06-19T07:38:58;7.53;;;3.42;;
43803;SDS011;29430;52.924;-2.388;2023-06-19T07:43:50;5.75;;;3.38;;
43803;SDS011;29430;52.924;-2.388;2023-06-19T07:48:42;6.50;;;3.80;;
43803;SDS011;29430;52.924;-2.388;2023-06-19T07:53:33;5.90;;;3.58;;
43803;SDS011;29430;52.924;-2.388;2023-06-19T07:58:25;4.95;;;3.65;;
43803;SDS011;29430;52.924;-2.388;2023-06-19T08:03:16;7.25;;;4.35;;
43803;SDS011;29430;52.924;-2.388;2023-06-19T08:08:08;5.97;;;4.20;;
43803;SDS011;29430;52.924;-2.388;2023-06-19T08:13:00;11.45;;;5.25;;
43803;SDS011;29430;52.924;-2.388;2023-06-19T08:17:51;6.95;;;4.25;;
43803;SDS011;29430;52.924;-2.388;2023-06-19T08:22:43;7.97;;;4.05;;
43803;SDS011;29430;52.924;-2.388;2023-06-19T08:27:35;6.43;;;3.75;;
43803;SDS011;29430;52.924;-2.388;2023-06-19T08:32:26;4.90;;;2.70;;
43803;SDS011;29430;52.924;-2.388;2023-06-19T08:37:18;5.93;;;3.10;;
43803;SDS011;29430;52.924;-2.388;2023-06-19T08:42:10;6.07;;;2.38;;
43803;SDS011;29430;52.924;-2.388;2023-06-19T08:47:02;5.25;;;1.88;;
43803;SDS011;29430;52.924;-2.388;2023-06-19T08:51:55;4.57;;;1.83;;
43803;SDS011;29430;52.924;-2.388;2023-06-19T08:56:47;4.13;;;1.30;;
43803;SDS011;29430;52.924;-2.388;2023-06-19T09:01:39;4.93;;;1.50;;
43803;SDS011;29430;52.924;-2.388;2023-06-19T09:06:31;5.20;;;1.40;;
43803;SDS011;29430;52.924;-2.388;2023-06-19T09:11:23;5.10;;;1.38;;
43803;SDS011;29430;52.924;-2.388;2023-06-19T09:16:14;3.80;;;1.10;;
43803;SDS011;29430;52.924;-2.388;2023-06-19T09:21:06;3.70;;;1.45;;
43803;SDS011;29430;52.924;-2.388;2023-06-19T09:25:58;3.80;;;1.70;;
43803;SDS011;29430;52.924;-2.388;2023-06-19T09:35:44;4.95;;;1.48;;
43803;SDS011;29430;52.924;-2.388;2023-06-19T09:40:36;3.15;;;1.67;;
43803;SDS011;29430;52.924;-2.388;2023-06-19T09:45:28;3.65;;;1.55;;
43803;SDS011;29430;52.924;-2.388;2023-06-19T09:50:22;4.78;;;1.55;;
43803;SDS011;29430;52.924;-2.388;2023-06-19T09:55:18;2.97;;;1.42;;
43803;SDS011;29430;52.924;-2.388;2023-06-19T10:00:10;3.40;;;1.33;;
43803;SDS011;29430;52.924;-2.388;2023-06-19T10:05:03;3.05;;;1.05;;
43803;SDS011;29430;52.924;-2.388;2023-06-19T10:10:02;3.63;;;1.30;;
43803;SDS011;29430;52.924;-2.388;2023-06-19T10:14:56;3.72;;;1.05;;
43803;SDS011;29430;52.924;-2.388;2023-06-19T10:19:51;3.50;;;1.38;;
43803;SDS011;29430;52.924;-2.388;2023-06-19T10:24:48;3.37;;;1.07;;
43803;SDS011;29430;52.924;-2.388;2023-06-19T10:29:41;2.55;;;1.10;;
43803;SDS011;29430;52.924;-2.388;2023-06-19T10:34:45;2.75;;;1.27;;
43803;SDS011;29430;52.924;-2.388;2023-06-19T10:39:38;3.42;;;1.13;;
43803;SDS011;29430;52.924;-2.388;2023-06-19T10:44:30;3.85;;;1.30;;
43803;SDS011;29430;52.924;-2.388;2023-06-19T10:49:22;2.97;;;0.90;;
43803;SDS011;29430;52.924;-2.388;2023-06-19T10:54:13;4.43;;;1.30;;
43803;SDS011;29430;52.924;-2.388;2023-06-19T10:59:07;3.40;;;1.00;;
43803;SDS011;29430;52.924;-2.388;2023-06-19T11:04:06;3.40;;;1.00;;
43803;SDS011;29430;52.924;-2.388;2023-06-19T11:08:59;2.38;;;1.13;;
43803;SDS011;29430;52.924;-2.388;2023-06-19T11:13:51;3.42;;;1.00;;
43803;SDS011;29430;52.924;-2.388;2023-06-19T11:18:43;2.60;;;0.93;;
43803;SDS011;29430;52.924;-2.388;2023-06-19T11:23:35;2.42;;;0.82;;
43803;SDS011;29430;52.924;-2.388;2023-06-19T11:28:26;3.05;;;0.77;;
43803;SDS011;29430;52.924;-2.388;2023-06-19T11:33:19;4.70;;;1.30;;
43803;SDS011;29430;52.924;-2.388;2023-06-19T11:38:18;2.53;;;1.00;;
43803;SDS011;29430;52.924;-2.388;2023-06-19T11:48:04;3.28;;;1.27;;
43803;SDS011;29430;52.924;-2.388;2023-06-19T11:52:57;6.80;;;1.20;;
43803;SDS011;29430;52.924;-2.388;2023-06-19T11:57:51;5.80;;;1.75;;
43803;SDS011;29430;52.924;-2.388;2023-06-19T12:02:43;4.13;;;1.30;;
43803;SDS011;29430;52.924;-2.388;2023-06-19T12:07:38;3.50;;;1.60;;
43803;SDS011;29430;52.924;-2.388;2023-06-19T12:12:30;2.97;;;0.82;;
43803;SDS011;29430;52.924;-2.388;2023-06-19T12:17:22;5.65;;;1.38;;
43803;SDS011;29430;52.924;-2.388;2023-06-19T12:22:14;4.55;;;0.98;;
43803;SDS011;29430;52.924;-2.388;2023-06-19T12:27:06;2.50;;;1.02;;
43803;SDS011;29430;52.924;-2.388;2023-06-19T12:31:59;2.83;;;0.82;;
43803;SDS011;29430;52.924;-2.388;2023-06-19T12:36:52;2.17;;;0.90;;
43803;SDS011;29430;52.924;-2.388;2023-06-19T12:41:45;3.45;;;0.65;;
43803;SDS011;29430;52.924;-2.388;2023-06-19T12:46:37;2.95;;;0.50;;
43803;SDS011;29430;52.924;-2.388;2023-06-19T12:51:29;3.50;;;0.70;;
43803;SDS011;29430;52.924;-2.388;2023-06-19T12:56:20;1.95;;;0.70;;
43803;SDS011;29430;52.924;-2.388;2023-06-19T13:01:12;1.98;;;0.60;;
43803;SDS011;29430;52.924;-2.388;2023-06-19T13:06:04;3.38;;;0.60;;
43803;SDS011;29430;52.924;-2.388;2023-06-19T13:10:56;1.98;;;0.70;;
43803;SDS011;29430;52.924;-2.388;2023-06-19T13:15:47;2.85;;;0.60;;
43803;SDS011;29430;52.924;-2.388;2023-06-19T13:20:39;1.58;;;0.60;;
43803;SDS011;29430;52.924;-2.388;2023-06-19T13:25:31;2.95;;;0.60;;
43803;SDS011;29430;52.924;-2.388;2023-06-19T13:30:24;3.22;;;0.60;;
43803;SDS011;29430;52.924;-2.388;2023-06-19T13:35:16;1.42;;;0.50;;
43803;SDS011;29430;52.924;-2.388;2023-06-19T13:40:08;2.75;;;0.63;;
43803;SDS011;29430;52.924;-2.388;2023-06-19T13:44:59;1.58;;;0.60;;
43803;SDS011;29430;52.924;-2.388;2023-06-19T13:49:52;2.63;;;0.60;;
43803;SDS011;29430;52.924;-2.388;2023-06-19T13:54:43;3.50;;;0.80;;
43803;SDS011;29430;52.924;-2.388;2023-06-19T13:59:35;3.22;;;0.70;;
43803;SDS011;29430;52.924;-2.388;2023-06-19T14:04:27;2.90;;;0.90;;
43803;SDS011;29430;52.924;-2.388;2023-06-19T14:09:19;1.48;;;0.60;;
43803;SDS011;29430;52.924;-2.388;2023-06-19T14:14:10;2.70;;;0.70;;
43803;SDS011;29430;52.924;-2.388;2023-06-19T14:19:02;1.23;;;0.50;;
43803;SDS011;29430;52.924;-2.388;2023-06-19T14:23:54;2.90;;;0.80;;
43803;SDS011;29430;52.924;-2.388;2023-06-19T14:28:45;5.50;;;0.80;;
43803;SDS011;29430;52.924;-2.388;2023-06-19T14:33:37;1.98;;;0.55;;
43803;SDS011;29430;52.924;-2.388;2023-06-19T14:38:29;4.68;;;0.80;;
43803;SDS011;29430;52.924;-2.388;2023-06-19T14:43:24;1.55;;;0.50;;
43803;SDS011;29430;52.924;-2.388;2023-06-19T14:48:16;2.20;;;0.70;;
43803;SDS011;29430;52.924;-2.388;2023-06-19T14:53:08;1.40;;;0.55;;
43803;SDS011;29430;52.924;-2.388;2023-06-19T14:57:59;2.45;;;0.70;;
43803;SDS011;29430;52.924;-2.388;2023-06-19T15:02:51;2.08;;;0.60;;
43803;SDS011;29430;52.924;-2.388;2023-06-19T15:07:43;1.48;;;0.57;;
43803;SDS011;29430;52.924;-2.388;2023-06-19T15:12:34;2.33;;;0.50;;
43803;SDS011;29430;52.924;-2.388;2023-06-19T15:17:26;1.23;;;0.50;;
43803;SDS011;29430;52.924;-2.388;2023-06-19T15:22:18;3.60;;;0.55;;
43803;SDS011;29430;52.924;-2.388;2023-06-19T15:27:09;1.63;;;0.40;;
43803;SDS011;29430;52.924;-2.388;2023-06-19T15:32:02;2.72;;;0.50;;
43803;SDS011;29430;52.924;-2.388;2023-06-19T15:36:54;3.05;;;0.80;;
43803;SDS011;29430;52.924;-2.388;2023-06-19T15:41:46;3.58;;;0.60;;
43803;SDS011;29430;52.924;-2.388;2023-06-19T15:46:38;1.70;;;0.50;;
43803;SDS011;29430;52.924;-2.388;2023-06-19T15:51:29;4.72;;;0.50;;
43803;SDS011;29430;52.924;-2.388;2023-06-19T15:56:21;2.38;;;0.40;;
43803;SDS011;29430;52.924;-2.388;2023-06-19T16:01:12;1.73;;;0.50;;
43803;SDS011;29430;52.924;-2.388;2023-06-19T16:06:04;2.90;;;0.50;;
43803;SDS011;29430;52.924;-2.388;2023-06-19T16:10:58;1.48;;;0.40;;
43803;SDS011;29430;52.924;-2.388;2023-06-19T16:15:50;2.85;;;0.50;;
43803;SDS011;29430;52.924;-2.388;2023-06-19T16:20:42;1.38;;;0.43;;
43803;SDS011;29430;52.924;-2.388;2023-06-19T16:25:34;1.52;;;0.55;;
43803;SDS011;29430;52.924;-2.388;2023-06-19T16:30:25;1.25;;;0.40;;
43803;SDS011;29430;52.924;-2.388;2023-06-19T16:35:17;1.13;;;0.50;;
43803;SDS011;29430;52.924;-2.388;2023-06-19T16:40:13;1.57;;;0.40;;
43803;SDS011;29430;52.924;-2.388;2023-06-19T16:45:05;1.80;;;0.40;;
43803;SDS011;29430;52.924;-2.388;2023-06-19T16:49:57;3.05;;;0.50;;
43803;SDS011;29430;52.924;-2.388;2023-06-19T16:54:49;2.38;;;0.55;;
43803;SDS011;29430;52.924;-2.388;2023-06-19T16:59:40;1.77;;;0.40;;
43803;SDS011;29430;52.924;-2.388;2023-06-19T17:04:32;2.58;;;0.40;;
43803;SDS011;29430;52.924;-2.388;2023-06-19T17:09:24;2.90;;;0.40;;
43803;SDS011;29430;52.924;-2.388;2023-06-19T17:14:15;0.80;;;0.30;;
43803;SDS011;29430;52.924;-2.388;2023-06-19T17:19:07;2.28;;;0.40;;
43803;SDS011;29430;52.924;-2.388;2023-06-19T17:23:59;1.05;;;0.40;;
43803;SDS011;29430;52.924;-2.388;2023-06-19T17:28:50;0.88;;;0.30;;
43803;SDS011;29430;52.924;-2.388;2023-06-19T17:33:42;1.40;;;0.30;;
43803;SDS011;29430;52.924;-2.388;2023-06-19T17:38:33;0.82;;;0.30;;
43803;SDS011;29430;52.924;-2.388;2023-06-19T17:43:25;1.42;;;0.40;;
43803;SDS011;29430;52.924;-2.388;2023-06-19T17:48:17;0.98;;;0.30;;
43803;SDS011;29430;52.924;-2.388;2023-06-19T17:53:09;0.60;;;0.30;;
43803;SDS011;29430;52.924;-2.388;2023-06-19T17:58:01;2.10;;;0.40;;
43803;SDS011;29430;52.924;-2.388;2023-06-19T18:02:53;1.38;;;0.40;;
43803;SDS011;29430;52.924;-2.388;2023-06-19T18:07:44;2.78;;;0.50;;
43803;SDS011;29430;52.924;-2.388;2023-06-19T18:12:36;0.95;;;0.30;;
43803;SDS011;29430;52.924;-2.388;2023-06-19T18:17:28;1.50;;;0.40;;
43803;SDS011;29430;52.924;-2.388;2023-06-19T18:22:20;1.15;;;0.30;;
43803;SDS011;29430;52.924;-2.388;2023-06-19T18:27:12;1.20;;;0.30;;
43803;SDS011;29430;52.924;-2.388;2023-06-19T18:32:04;1.70;;;0.43;;
43803;SDS011;29430;52.924;-2.388;2023-06-19T18:36:55;2.10;;;0.40;;
43803;SDS011;29430;52.924;-2.388;2023-06-19T18:41:47;1.25;;;0.50;;
43803;SDS011;29430;52.924;-2.388;2023-06-19T18:46:39;2.40;;;0.40;;
43803;SDS011;29430;52.924;-2.388;2023-06-19T18:51:32;3.15;;;0.50;;
43803;SDS011;29430;52.924;-2.388;2023-06-19T18:56:23;1.70;;;0.63;;
43803;SDS011;29430;52.924;-2.388;2023-06-19T19:01:15;1.42;;;0.40;;
43803;SDS011;29430;52.924;-2.388;2023-06-19T19:06:08;1.38;;;0.50;;
43803;SDS011;29430;52.924;-2.388;2023-06-19T19:11:00;3.03;;;0.40;;
43803;SDS011;29430;52.924;-2.388;2023-06-19T19:15:51;2.25;;;0.50;;
43803;SDS011;29430;52.924;-2.388;2023-06-19T19:20:43;2.30;;;0.60;;
43803;SDS011;29430;52.924;-2.388;2023-06-19T19:25:35;1.55;;;0.40;;
43803;SDS011;29430;52.924;-2.388;2023-06-19T19:30:29;1.83;;;0.60;;
43803;SDS011;29430;52.924;-2.388;2023-06-19T19:35:21;1.30;;;0.50;;
43803;SDS011;29430;52.924;-2.388;2023-06-19T19:40:12;1.38;;;0.50;;
43803;SDS011;29430;52.924;-2.388;2023-06-19T19:45:04;2.83;;;0.60;;
43803;SDS011;29430;52.924;-2.388;2023-06-19T19:49:57;1.63;;;0.50;;
43803;SDS011;29430;52.924;-2.388;2023-06-19T19:54:48;4.25;;;0.60;;
43803;SDS011;29430;52.924;-2.388;2023-06-19T19:59:40;2.70;;;0.50;;
43803;SDS011;29430;52.924;-2.388;2023-06-19T20:04:32;1.50;;;0.55;;
43803;SDS011;29430;52.924;-2.388;2023-06-19T20:09:23;2.05;;;0.40;;
43803;SDS011;29430;52.924;-2.388;2023-06-19T20:14:15;1.65;;;0.40;;
43803;SDS011;29430;52.924;-2.388;2023-06-19T20:19:07;1.40;;;0.45;;
43803;SDS011;29430;52.924;-2.388;2023-06-19T20:23:58;1.42;;;0.50;;
43803;SDS011;29430;52.924;-2.388;2023-06-19T20:28:50;1.77;;;0.45;;
43803;SDS011;29430;52.924;-2.388;2023-06-19T20:33:42;1.55;;;0.50;;
43803;SDS011;29430;52.924;-2.388;2023-06-19T20:38:33;1.92;;;0.55;;
43803;SDS011;29430;52.924;-2.388;2023-06-19T20:43:29;1.30;;;0.60;;
43803;SDS011;29430;52.924;-2.388;2023-06-19T20:48:20;2.45;;;0.60;;
43803;SDS011;29430;52.924;-2.388;2023-06-19T20:53:12;2.88;;;0.68;;
43803;SDS011;29430;52.924;-2.388;2023-06-19T20:58:04;3.00;;;0.80;;
43803;SDS011;29430;52.924;-2.388;2023-06-19T21:02:56;2.03;;;0.60;;
43803;SDS011;29430;52.924;-2.388;2023-06-19T21:07:48;1.90;;;0.70;;
43803;SDS011;29430;52.924;-2.388;2023-06-19T21:12:40;2.35;;;0.77;;
43803;SDS011;29430;52.924;-2.388;2023-06-19T21:17:31;2.17;;;0.45;;
43803;SDS011;29430;52.924;-2.388;2023-06-19T21:22:23;1.48;;;0.63;;
43803;SDS011;29430;52.924;-2.388;2023-06-19T21:27:15;3.58;;;0.70;;
43803;SDS011;29430;52.924;-2.388;2023-06-19T21:32:07;3.13;;;0.70;;
43803;SDS011;29430;52.924;-2.388;2023-06-19T21:36:59;3.50;;;0.70;;
43803;SDS011;29430;52.924;-2.388;2023-06-19T21:41:50;1.98;;;0.63;;
43803;SDS011;29430;52.924;-2.388;2023-06-19T21:46:42;4.10;;;0.70;;
43803;SDS011;29430;52.924;-2.388;2023-06-19T21:51:34;1.70;;;0.60;;
43803;SDS011;29430;52.924;-2.388;2023-06-19T21:56:26;2.22;;;0.60;;
43803;SDS011;29430;52.924;-2.388;2023-06-19T22:01:18;1.98;;;0.70;;
43803;SDS011;29430;52.924;-2.388;2023-06-19T22:06:10;2.20;;;0.57;;
43803;SDS011;29430;52.924;-2.388;2023-06-19T22:11:01;2.90;;;0.60;;
43803;SDS011;29430;52.924;-2.388;2023-06-19T22:15:53;1.42;;;0.43;;
43803;SDS011;29430;52.924;-2.388;2023-06-19T22:20:45;2.22;;;0.70;;
43803;SDS011;29430;52.924;-2.388;2023-06-19T22:25:36;2.22;;;0.70;;
43803;SDS011;29430;52.924;-2.388;2023-06-19T22:30:28;3.40;;;0.60;;
43803;SDS011;29430;52.924;-2.388;2023-06-19T22:35:20;4.43;;;1.05;;
43803;SDS011;29430;52.924;-2.388;2023-06-19T22:40:12;3.58;;;0.65;;
43803;SDS011;29430;52.924;-2.388;2023-06-19T22:45:05;2.10;;;0.70;;
43803;SDS011;29430;52.924;-2.388;2023-06-19T22:49:57;2.13;;;0.63;;
43803;SDS011;29430;52.924;-2.388;2023-06-19T22:54:49;2.35;;;0.60;;
43803;SDS011;29430;52.924;-2.388;2023-06-19T22:59:41;2.03;;;0.60;;
43803;SDS011;29430;52.924;-2.388;2023-06-19T23:04:32;1.60;;;0.60;;
43803;SDS011;29430;52.924;-2.388;2023-06-19T23:09:24;3.05;;;0.70;;
43803;SDS011;29430;52.924;-2.388;2023-06-19T23:14:21;1.77;;;0.60;;
43803;SDS011;29430;52.924;-2.388;2023-06-19T23:19:13;1.85;;;0.68;;
43803;SDS011;29430;52.924;-2.388;2023-06-19T23:24:04;4.15;;;0.90;;
43803;SDS011;29430;52.924;-2.388;2023-06-19T23:41:27;1.50;;;0.80;;
43803;SDS011;29430;52.924;-2.388;2023-06-19T23:46:19;2.47;;;0.63;;
43803;SDS011;29430;52.924;-2.388;2023-06-19T23:51:11;3.00;;;0.70;;
